Eagle Rock, Virginia
Current Conditions -  °F | °C
As of 7:55 AM on Thursday 23 Oct 2014 (Local Time) from KHSP Reporting Station
Overcast Overcast  
Wind Chill: 28°   Ceiling: 600
Heat Index: 38°   Visibility: 10mi
Dew Point: 37°   Wind: 22mph
Humidity: 93%   Direction: 300°WNW
Pressure: 30.03"   Gusts: 26mph
Location:  37.64°N, 79.8°W
Report Text: KHSP 231155Z AUTO 30019G23KT 10SM OVC006 04/03 A3003 RMK AO2 T00360026 10037 20035
Loading
Personal Weather Stations






























Interactive Weather Map
Tropical Storm Tracking
New forecast layout! Learn more

10-Day Weather Forecast

Advertisements
Track Severe Weather on mobile